Current | Forecast
Updated: 1:30 AM CET on December 14, 2017
Observed at Brno, Czech Republic
Temperature 1°C
Windchill -2°C
Humidity 87%
Dew Point -1°C
Wind South at 9 km/h
Pressure 1002 hPa (Falling)
Conditions Overcast
Visibility 10.0 kilometers
UV 0 out of 16
Clouds Overcast (OVC) : 365 m
Yesterday's Maximum 4°C
Yesterday's Minimum -2°C approx.
Yesterday's Heating Degree Days 31 approx.
Sunrise7:44 AM CET
Sunset3:54 PM CET
Moon Rise3:29 AM CET
Moon Set2:14 PM CET
Moon PhaseMoon Phase
Waning Crescent
Raw METARMETAR LKTB 140030Z 17005KT 9999 OVC012 01/M01 Q1002 NOSIG


Monday
. High: 57° F.
Tuesday
. High: 62° F.
Wednesday
. High: 69° F.
Thursday
. High: 55° F.
Friday
. High: 59° F.
Saturday
. High: 62° F.
Sunday
. High: 66° F.
Monday
. High: 62° F.

Units: English | Metric

Find the Weather for any City, State or Zipcode, or Country:

U.S. State List | Severe Weather | Tropical Storms | Ski Conditions
United States | Canada | Central America | South America | Asia | Europe | Australia | Africa | Islands

Weather Underground

© Copyright 2017
The Weather Company, LLC